Time;durP1;ratioP1;P1;durP2;ratioP2;P2;SDS_P1;SDS_P2;PMS_P1;PMS_P2;Temp;Humidity;BMP_temperature;BMP_pressure;BME280_temperature;BME280_humidity;BME280_pressure;Samples;Min_cycle;Max_cycle;Signal;HPM_P1;HPM_P2
2023/06/22 00:01:49;;;;;;;6.88;2.90;;;21.80;99.90;;;;;;4996061;28;20041;-63
2023/06/22 00:04:15;;;;;;;8.18;2.53;;;21.70;99.90;;;;;;4993832;28;20109;-63
2023/06/22 00:06:40;;;;;;;10.07;3.80;;;21.70;99.90;;;;;;4993947;28;21077;-81
2023/06/22 00:09:06;;;;;;;8.85;3.25;;;21.70;99.90;;;;;;4989942;28;20512;-81
2023/06/22 00:11:33;;;;;;;6.38;3.22;;;21.70;99.90;;;;;;4988843;28;20750;-81
2023/06/22 00:13:59;;;;;;;10.43;2.90;;;21.80;99.90;;;;;;4991992;28;20117;-81
2023/06/22 00:16:25;;;;;;;8.35;2.85;;;21.70;99.90;;;;;;4996466;28;20029;-82
2023/06/22 00:18:51;;;;;;;4.85;2.65;;;21.60;99.90;;;;;;4995258;28;20092;-82
2023/06/22 00:21:16;;;;;;;10.77;3.35;;;21.70;99.90;;;;;;4997843;28;20065;-81
2023/06/22 00:23:43;;;;;;;6.70;2.72;;;21.70;99.90;;;;;;5000035;28;20029;-78
2023/06/22 00:26:08;;;;;;;7.13;3.00;;;21.60;99.90;;;;;;4997690;28;20058;-77
2023/06/22 00:28:34;;;;;;;6.63;2.75;;;21.60;99.90;;;;;;4990015;28;20037;-79
2023/06/22 00:31:00;;;;;;;4.22;3.00;;;21.50;99.90;;;;;;4998232;28;20038;-78
2023/06/22 00:33:28;;;;;;;8.60;2.88;;;21.50;99.90;;;;;;4994113;28;20045;-79
2023/06/22 00:35:54;;;;;;;7.13;2.42;;;21.50;99.90;;;;;;4999100;28;20034;-79
2023/06/22 00:38:20;;;;;;;8.13;2.80;;;21.50;99.90;;;;;;4995413;28;20031;-79
2023/06/22 00:40:46;;;;;;;7.93;2.72;;;21.50;99.90;;;;;;5000007;28;20040;-79
2023/06/22 00:43:12;;;;;;;6.00;2.97;;;21.50;99.90;;;;;;4989924;28;20017;-81
2023/06/22 00:45:38;;;;;;;7.47;3.20;;;21.50;99.90;;;;;;4998053;28;20053;-78
2023/06/22 00:48:06;;;;;;;9.70;3.45;;;21.50;99.90;;;;;;4993153;28;20030;-77
2023/06/22 00:50:34;;;;;;;7.32;3.08;;;21.30;99.90;;;;;;4989515;28;20026;-78
2023/06/22 00:53:07;;;;;;;7.68;3.45;;;21.30;99.90;;;;;;4998662;28;20091;-77
2023/06/22 00:55:38;;;;;;;8.77;3.17;;;21.30;99.90;;;;;;4996714;28;20029;-77
2023/06/22 00:58:10;;;;;;;4.45;2.65;;;21.30;99.90;;;;;;4998060;28;20913;-76
2023/06/22 01:00:36;;;;;;;5.57;2.70;;;21.30;99.90;;;;;;5000190;28;20034;-77
2023/06/22 01:03:02;;;;;;;6.82;2.60;;;21.30;99.90;;;;;;4998916;28;20399;-64
2023/06/22 01:05:31;;;;;;;10.02;2.92;;;21.30;99.90;;;;;;4987481;28;20041;-65
2023/06/22 01:08:12;;;;;;;6.93;3.03;;;21.30;99.90;;;;;;4996718;28;20121;-64
2023/06/22 01:11:05;;;;;;;10.30;2.53;;;21.30;99.90;;;;;;4997140;28;20037;-64
2023/06/22 01:13:46;;;;;;;7.35;2.40;;;21.30;99.90;;;;;;4995684;28;20041;-64
2023/06/22 01:16:26;;;;;;;6.88;2.95;;;21.30;99.90;;;;;;4998737;28;20048;-63
2023/06/22 01:18:55;;;;;;;7.40;3.15;;;21.30;99.90;;;;;;4996271;28;20034;-63
2023/06/22 01:21:23;;;;;;;7.97;2.47;;;21.30;99.90;;;;;;4984190;28;20068;-77
2023/06/22 01:24:26;;;;;;;6.07;2.83;;;21.30;99.90;;;;;;4988635;28;20034;-78
2023/06/22 01:27:07;;;;;;;4.63;2.28;;;21.30;99.90;;;;;;4990909;28;20164;-80
2023/06/22 01:29:34;;;;;;;5.75;2.83;;;21.40;99.90;;;;;;4990949;28;20038;-76
2023/06/22 01:32:03;;;;;;;6.07;3.10;;;21.40;99.90;;;;;;4991687;28;20038;-77
2023/06/22 01:34:32;;;;;;;6.78;2.72;;;21.40;99.90;;;;;;4992116;28;20949;-76
2023/06/22 01:36:59;;;;;;;6.43;2.42;;;21.20;99.90;;;;;;4990881;28;20025;-78
2023/06/22 01:39:26;;;;;;;6.53;2.55;;;21.10;99.90;;;;;;4984487;28;20092;-80
2023/06/22 01:41:53;;;;;;;5.55;2.85;;;21.10;99.90;;;;;;4980182;28;21924;-77
2023/06/22 01:44:19;;;;;;;7.32;3.47;;;21.10;99.90;;;;;;4979460;28;20037;-77
2023/06/22 01:46:45;;;;;;;6.63;2.95;;;21.10;99.90;;;;;;4984749;28;20041;-79
2023/06/22 01:49:12;;;;;;;7.53;3.20;;;21.10;99.90;;;;;;4990025;28;20444;-80
2023/06/22 01:51:38;;;;;;;5.53;3.03;;;21.00;99.90;;;;;;4988953;28;20423;-76
2023/06/22 01:54:05;;;;;;;7.97;3.00;;;21.00;99.90;;;;;;4993791;28;20269;-75
2023/06/22 01:56:32;;;;;;;7.32;3.00;;;20.90;99.90;;;;;;4990145;28;20041;-75
2023/06/22 01:59:03;;;;;;;5.97;2.85;;;20.90;99.90;;;;;;4988411;28;20085;-75
2023/06/22 02:01:35;;;;;;;9.98;3.47;;;20.90;99.90;;;;;;4992702;28;20232;-75
2023/06/22 02:04:12;;;;;;;7.72;3.10;;;21.00;99.90;;;;;;4993023;28;20540;-76
2023/06/22 02:06:40;;;;;;;11.07;3.50;;;21.00;99.90;;;;;;4987742;28;20049;-75
2023/06/22 02:09:10;;;;;;;6.05;3.13;;;20.90;99.90;;;;;;4988942;28;20152;-75
2023/06/22 02:11:37;;;;;;;5.75;3.38;;;20.90;99.90;;;;;;4991427;28;20068;-75
2023/06/22 02:14:05;;;;;;;6.90;3.50;;;20.90;99.90;;;;;;4989991;28;20038;-65
2023/06/22 02:16:32;;;;;;;4.78;3.05;;;21.00;99.90;;;;;;4984204;28;20922;-65
2023/06/22 02:19:03;;;;;;;6.45;3.15;;;21.00;99.90;;;;;;4989270;28;20030;-65
2023/06/22 02:21:29;;;;;;;5.13;3.13;;;21.10;99.90;;;;;;4987711;28;20038;-65
2023/06/22 02:23:54;;;;;;;7.72;2.97;;;21.00;99.90;;;;;;4996671;28;20022;-65
2023/06/22 02:26:20;;;;;;;5.40;2.72;;;21.10;99.90;;;;;;4991150;28;20058;-65
2023/06/22 02:28:46;;;;;;;7.47;3.28;;;21.10;99.90;;;;;;4992180;28;20666;-65
2023/06/22 02:31:11;;;;;;;9.40;3.10;;;21.20;99.90;;;;;;4993819;28;20037;-64
2023/06/22 02:33:37;;;;;;;5.35;3.35;;;21.20;99.90;;;;;;4989975;28;20053;-75
2023/06/22 02:36:05;;;;;;;6.20;4.00;;;21.20;99.90;;;;;;4987464;28;20033;-76
2023/06/22 02:38:33;;;;;;;7.82;3.20;;;21.20;99.90;;;;;;4994758;28;20018;-75
2023/06/22 02:40:59;;;;;;;7.45;2.90;;;21.20;99.90;;;;;;4993417;28;20062;-75
2023/06/22 02:43:24;;;;;;;8.20;3.30;;;21.20;99.90;;;;;;4994342;28;20121;-75
2023/06/22 02:45:50;;;;;;;10.27;3.10;;;21.10;99.90;;;;;;4988481;28;20165;-75
2023/06/22 02:48:16;;;;;;;13.52;3.38;;;21.10;99.90;;;;;;4989598;28;20034;-75
2023/06/22 02:50:41;;;;;;;9.20;2.65;;;21.00;99.90;;;;;;4989590;28;20057;-75
2023/06/22 02:53:07;;;;;;;6.05;2.55;;;21.00;99.90;;;;;;4991251;28;20822;-65
2023/06/22 02:55:32;;;;;;;7.63;2.65;;;21.00;99.90;;;;;;4990277;28;20445;-65
2023/06/22 02:57:59;;;;;;;5.85;2.65;;;21.00;99.90;;;;;;4991568;28;20518;-65
2023/06/22 03:00:30;;;;;;;5.97;3.03;;;21.00;99.90;;;;;;4992968;28;20026;-65
2023/06/22 03:02:57;;;;;;;7.35;2.97;;;21.00;99.90;;;;;;4987856;28;20064;-65
2023/06/22 03:05:22;;;;;;;8.57;2.90;;;21.00;99.90;;;;;;4992615;28;21954;-65
2023/06/22 03:07:48;;;;;;;5.80;2.50;;;21.10;99.90;;;;;;4993993;28;20042;-65
2023/06/22 03:10:14;;;;;;;7.93;2.97;;;21.00;99.90;;;;;;4995191;28;21171;-65
2023/06/22 03:12:41;;;;;;;4.72;2.70;;;21.00;99.90;;;;;;4994581;28;20103;-65
2023/06/22 03:15:12;;;;;;;6.07;2.65;;;20.90;99.90;;;;;;4998756;28;20022;-65
2023/06/22 03:17:39;;;;;;;8.32;3.08;;;20.90;99.90;;;;;;4994587;28;20049;-65
2023/06/22 03:20:10;;;;;;;9.60;2.55;;;20.90;99.90;;;;;;4993289;28;20041;-65
2023/06/22 03:22:40;;;;;;;6.93;2.70;;;20.90;99.90;;;;;;4990434;28;20487;-65
2023/06/22 03:25:10;;;;;;;5.20;2.30;;;20.90;99.90;;;;;;4993968;28;20034;-65
2023/06/22 03:27:37;;;;;;;7.28;2.67;;;21.00;99.90;;;;;;4998260;28;20093;-76
2023/06/22 03:30:03;;;;;;;6.18;2.50;;;21.00;99.90;;;;;;4999855;28;20551;-65
2023/06/22 03:32:28;;;;;;;7.47;2.63;;;21.00;99.90;;;;;;4993720;28;20241;-65
2023/06/22 03:34:54;;;;;;;8.80;2.92;;;21.10;99.90;;;;;;4994548;28;20042;-65
2023/06/22 03:37:20;;;;;;;10.45;3.28;;;21.10;99.90;;;;;;4994407;28;20032;-65
2023/06/22 03:39:45;;;;;;;6.95;2.58;;;21.10;99.90;;;;;;4992418;28;20042;-65
2023/06/22 03:42:11;;;;;;;5.32;2.40;;;21.10;99.90;;;;;;4994832;28;20038;-65
2023/06/22 03:44:36;;;;;;;3.42;2.15;;;21.10;99.90;;;;;;4994879;28;20104;-65
2023/06/22 03:47:07;;;;;;;4.45;2.67;;;21.10;99.90;;;;;;4995633;28;20502;-65
2023/06/22 03:49:33;;;;;;;3.08;2.10;;;21.20;99.90;;;;;;4997638;28;20390;-65
2023/06/22 03:52:01;;;;;;;8.85;2.70;;;21.10;99.90;;;;;;4999162;28;20084;-66
2023/06/22 03:54:27;;;;;;;7.53;2.45;;;21.20;99.90;;;;;;4997659;28;20088;-65
2023/06/22 03:56:53;;;;;;;6.00;2.65;;;21.20;99.90;;;;;;4990419;28;21796;-64
2023/06/22 03:59:18;;;;;;;6.28;2.55;;;21.10;99.90;;;;;;4999342;28;20041;-65
2023/06/22 04:01:44;;;;;;;6.65;3.05;;;21.20;99.90;;;;;;4994092;28;20638;-64
2023/06/22 04:04:10;;;;;;;7.18;2.70;;;21.20;99.90;;;;;;5002848;28;20083;-65
2023/06/22 04:06:35;;;;;;;5.93;2.67;;;21.20;99.90;;;;;;4993993;28;20631;-65
2023/06/22 04:09:01;;;;;;;5.88;2.58;;;21.20;99.90;;;;;;4998621;28;20077;-65
2023/06/22 04:11:27;;;;;;;7.00;2.60;;;21.20;99.90;;;;;;4997085;28;20046;-65
2023/06/22 04:13:53;;;;;;;5.22;2.55;;;21.20;99.90;;;;;;4998651;28;20057;-65
2023/06/22 04:16:19;;;;;;;4.75;2.70;;;21.10;99.90;;;;;;4994533;28;20030;-65
2023/06/22 04:18:45;;;;;;;9.13;3.10;;;21.20;99.90;;;;;;4997952;28;20041;-65
2023/06/22 04:21:10;;;;;;;6.07;2.70;;;21.20;99.90;;;;;;4997130;28;20169;-65
2023/06/22 04:23:36;;;;;;;7.88;2.63;;;21.20;99.90;;;;;;5000450;28;20548;-76
2023/06/22 04:26:01;;;;;;;9.10;2.95;;;21.30;99.90;;;;;;4999585;28;20129;-76
2023/06/22 04:28:27;;;;;;;7.00;3.35;;;21.30;99.90;;;;;;4994504;28;20036;-76
2023/06/22 04:30:57;;;;;;;7.72;2.88;;;21.30;99.90;;;;;;4995551;28;20537;-75
2023/06/22 04:33:22;;;;;;;6.70;2.90;;;21.30;99.90;;;;;;4990722;28;20494;-76
2023/06/22 04:35:48;;;;;;;13.75;3.60;;;21.40;99.90;;;;;;4997285;28;20096;-76
2023/06/22 04:38:14;;;;;;;7.82;2.85;;;21.40;99.90;;;;;;4997331;28;20076;-77
2023/06/22 04:40:40;;;;;;;7.13;2.60;;;21.40;99.90;;;;;;5000495;28;20396;-76
2023/06/22 04:43:06;;;;;;;6.63;2.38;;;21.50;99.90;;;;;;5000537;28;20542;-65
2023/06/22 04:45:32;;;;;;;8.10;3.50;;;21.50;99.90;;;;;;4997405;28;20036;-65
2023/06/22 04:47:58;;;;;;;9.40;2.97;;;21.60;99.90;;;;;;4999603;28;21415;-65
2023/06/22 04:50:24;;;;;;;5.32;3.03;;;21.60;99.90;;;;;;4998846;28;20073;-65
2023/06/22 04:52:51;;;;;;;6.07;3.00;;;21.70;99.90;;;;;;4993890;28;20636;-64
2023/06/22 04:55:18;;;;;;;10.90;3.38;;;21.80;99.90;;;;;;5000644;28;20034;-64
2023/06/22 04:57:48;;;;;;;9.30;4.15;;;21.90;99.90;;;;;;4996589;28;20121;-64
2023/06/22 05:00:23;;;;;;;6.75;3.15;;;21.90;99.90;;;;;;5014295;28;20121;-63
2023/06/22 05:02:49;;;;;;;6.93;3.08;;;22.00;99.90;;;;;;4997622;28;20030;-64
2023/06/22 05:05:15;;;;;;;6.43;3.05;;;22.00;99.90;;;;;;4997330;28;20635;-64
2023/06/22 05:07:48;;;;;;;10.55;3.13;;;22.10;99.90;;;;;;5002499;28;20085;-63
2023/06/22 05:10:14;;;;;;;7.47;3.53;;;22.10;99.90;;;;;;4997774;28;20076;-64
2023/06/22 05:12:41;;;;;;;8.68;3.38;;;22.20;99.90;;;;;;4998431;28;20041;-64
2023/06/22 05:15:10;;;;;;;6.47;3.15;;;22.20;99.90;;;;;;5013087;28;20482;-64
2023/06/22 05:17:41;;;;;;;7.03;2.58;;;22.30;99.90;;;;;;4995252;28;20061;-63
2023/06/22 05:20:07;;;;;;;9.90;3.38;;;22.30;99.90;;;;;;5002179;28;20153;-64
2023/06/22 05:22:33;;;;;;;6.80;2.80;;;22.40;99.90;;;;;;4995089;28;20427;-64
2023/06/22 05:24:58;;;;;;;7.15;2.80;;;22.40;99.90;;;;;;4997577;28;20462;-64
2023/06/22 05:27:24;;;;;;;6.05;3.00;;;22.50;99.90;;;;;;4995454;28;20052;-64
2023/06/22 05:29:49;;;;;;;9.50;3.05;;;22.50;99.90;;;;;;5001885;28;20026;-64
2023/06/22 05:32:15;;;;;;;6.75;4.07;;;22.60;99.90;;;;;;5001385;28;20025;-64
2023/06/22 05:34:41;;;;;;;17.92;4.03;;;22.60;99.90;;;;;;4998492;28;20513;-64
2023/06/22 05:37:09;;;;;;;6.35;2.88;;;22.60;99.90;;;;;;4992339;28;20117;-65
2023/06/22 05:39:37;;;;;;;5.32;2.80;;;22.60;99.90;;;;;;4990039;28;20123;-74
2023/06/22 05:42:04;;;;;;;8.13;2.97;;;22.70;99.90;;;;;;4986134;28;20022;-75
2023/06/22 05:44:30;;;;;;;5.75;3.00;;;22.70;99.90;;;;;;4998814;28;20092;-72
2023/06/22 05:46:56;;;;;;;8.02;3.00;;;22.80;99.90;;;;;;4995724;28;20049;-76
2023/06/22 05:49:22;;;;;;;7.70;3.22;;;22.90;99.90;;;;;;5002456;28;20033;-76
2023/06/22 05:51:48;;;;;;;4.15;2.38;;;22.90;99.90;;;;;;4999222;28;20169;-78
2023/06/22 05:54:15;;;;;;;7.65;2.90;;;23.00;99.90;;;;;;4998574;28;20109;-77
2023/06/22 05:56:41;;;;;;;7.05;2.88;;;23.00;99.90;;;;;;4994406;28;20030;-65
2023/06/22 05:59:06;;;;;;;5.88;2.95;;;23.00;99.90;;;;;;4999844;28;20041;-77
2023/06/22 06:01:35;;;;;;;8.15;3.13;;;23.10;99.90;;;;;;5000213;28;20347;-77
2023/06/22 06:04:03;;;;;;;5.95;2.80;;;23.20;99.90;;;;;;5000161;28;20029;-77
2023/06/22 06:06:29;;;;;;;7.65;2.65;;;23.20;99.90;;;;;;5001353;28;20037;-77
2023/06/22 06:08:55;;;;;;;5.75;3.38;;;23.30;99.90;;;;;;5000792;28;20395;-77
2023/06/22 06:11:22;;;;;;;6.78;2.85;;;23.40;99.90;;;;;;5001582;28;20065;-77
2023/06/22 06:13:47;;;;;;;6.22;2.53;;;23.50;99.90;;;;;;4999481;28;20033;-77
2023/06/22 06:16:13;;;;;;;5.53;2.60;;;23.60;99.90;;;;;;4995252;28;20117;-77
2023/06/22 06:18:39;;;;;;;8.30;2.80;;;23.60;99.90;;;;;;5001697;28;20639;-77
2023/06/22 06:21:04;;;;;;;6.93;2.75;;;23.70;99.90;;;;;;4990729;28;20034;-77
2023/06/22 06:23:30;;;;;;;6.78;2.80;;;23.80;99.90;;;;;;4995253;28;20510;-77
2023/06/22 06:25:56;;;;;;;3.08;2.40;;;23.80;99.90;;;;;;4998300;28;20136;-76
2023/06/22 06:28:22;;;;;;;5.53;2.97;;;23.90;99.90;;;;;;4997013;28;20030;-78
2023/06/22 06:30:47;;;;;;;7.07;2.92;;;23.90;99.90;;;;;;4987332;28;20026;-79
2023/06/22 06:33:13;;;;;;;5.03;2.22;;;24.00;99.90;;;;;;4993444;28;20140;-65
2023/06/22 06:35:39;;;;;;;7.35;2.50;;;24.00;99.90;;;;;;4994076;28;20079;-65
2023/06/22 06:38:05;;;;;;;8.85;2.72;;;24.10;99.90;;;;;;4991030;28;20827;-65
2023/06/22 06:40:30;;;;;;;5.85;2.30;;;24.10;99.90;;;;;;4988655;28;22107;-65
2023/06/22 06:42:56;;;;;;;5.72;2.42;;;24.20;99.90;;;;;;4995890;28;20022;-65
2023/06/22 06:45:22;;;;;;;3.78;2.63;;;24.30;99.90;;;;;;4990091;28;20091;-65
2023/06/22 06:47:49;;;;;;;6.22;2.47;;;24.40;99.90;;;;;;4995500;28;20091;-65
2023/06/22 06:50:15;;;;;;;6.43;2.17;;;24.50;99.90;;;;;;4991906;28;20117;-78
2023/06/22 06:52:41;;;;;;;7.18;2.35;;;24.60;99.90;;;;;;4990366;28;20034;-78
2023/06/22 06:55:08;;;;;;;7.53;2.58;;;24.70;99.90;;;;;;4995779;28;20037;-76
2023/06/22 06:57:34;;;;;;;7.80;2.90;;;24.80;99.90;;;;;;4993762;28;20052;-77
2023/06/22 07:00:00;;;;;;;5.32;2.13;;;24.80;99.90;;;;;;4989477;28;20130;-77
2023/06/22 07:02:27;;;;;;;5.13;1.83;;;24.90;99.90;;;;;;4999324;28;20073;-76
2023/06/22 07:04:55;;;;;;;5.68;1.80;;;25.00;99.90;;;;;;4990670;28;20554;-76
2023/06/22 07:07:21;;;;;;;3.63;2.45;;;25.10;99.90;;;;;;4991175;28;20041;-76
2023/06/22 07:09:47;;;;;;;6.55;2.70;;;25.20;99.90;;;;;;4993458;28;21512;-76
2023/06/22 07:12:12;;;;;;;4.28;2.70;;;25.30;99.90;;;;;;4991251;28;20045;-65
2023/06/22 07:14:38;;;;;;;8.30;4.30;;;25.40;99.90;;;;;;4991881;28;20514;-65
2023/06/22 07:17:04;;;;;;;4.55;2.25;;;25.50;99.90;;;;;;4990018;28;20060;-66
2023/06/22 07:19:31;;;;;;;4.20;2.08;;;25.50;99.90;;;;;;4990405;28;20326;-65
2023/06/22 07:21:57;;;;;;;5.00;2.20;;;25.50;99.90;;;;;;4991940;28;20045;-65
2023/06/22 07:24:23;;;;;;;4.88;2.17;;;25.50;99.90;;;;;;4995968;28;20030;-65
2023/06/22 07:26:50;;;;;;;14.50;4.70;;;25.60;99.90;;;;;;4987281;28;20054;-80
2023/06/22 07:29:17;;;;;;;5.53;3.05;;;25.70;99.90;;;;;;4981639;28;20589;-80
2023/06/22 07:31:45;;;;;;;5.88;2.97;;;25.80;99.90;;;;;;4995209;28;20457;-83
2023/06/22 07:34:10;;;;;;;3.33;1.90;;;25.80;99.90;;;;;;4993076;28;20158;-80
2023/06/22 07:36:36;;;;;;;3.55;1.95;;;25.90;99.90;;;;;;5004648;28;20034;-79
2023/06/22 07:39:03;;;;;;;4.07;2.65;;;25.90;99.90;;;;;;4996161;28;20044;-78
2023/06/22 07:41:29;;;;;;;4.95;2.13;;;25.90;99.90;;;;;;4996575;28;20749;-82
2023/06/22 07:43:55;;;;;;;3.08;2.13;;;26.00;99.90;;;;;;4990392;28;20104;-80
2023/06/22 07:46:20;;;;;;;4.68;2.80;;;26.10;99.90;;;;;;4989753;28;20042;-79
2023/06/22 07:48:46;;;;;;;3.65;2.47;;;26.20;99.90;;;;;;4994068;28;20071;-80
2023/06/22 07:51:14;;;;;;;4.68;2.40;;;26.20;99.90;;;;;;4991410;28;20034;-80
2023/06/22 07:53:41;;;;;;;3.55;2.58;;;26.20;99.90;;;;;;4991251;28;20035;-83
2023/06/22 07:56:10;;;;;;;8.02;3.58;;;26.30;99.90;;;;;;4998505;28;20022;-79
2023/06/22 07:58:35;;;;;;;4.63;2.25;;;26.30;99.90;;;;;;4997092;28;20056;-81
2023/06/22 08:01:02;;;;;;;4.32;2.67;;;26.40;99.90;;;;;;4999959;28;20446;-80
2023/06/22 08:03:27;;;;;;;6.40;3.00;;;26.40;99.90;;;;;;4995344;28;20065;-80
2023/06/22 08:05:53;;;;;;;4.45;2.45;;;26.50;99.90;;;;;;4989525;28;20631;-80
2023/06/22 08:08:19;;;;;;;9.75;2.95;;;26.50;99.90;;;;;;4995829;28;20043;-80
2023/06/22 08:10:44;;;;;;;5.47;2.55;;;26.50;99.90;;;;;;4996974;28;20469;-78
2023/06/22 08:13:10;;;;;;;7.95;2.63;;;26.60;99.90;;;;;;4994663;28;20092;-78
2023/06/22 08:15:36;;;;;;;4.28;2.83;;;26.60;99.90;;;;;;4995902;28;20034;-77
2023/06/22 08:18:01;;;;;;;5.95;2.97;;;26.60;99.90;;;;;;4995910;28;20061;-79
2023/06/22 08:20:27;;;;;;;6.50;3.03;;;26.60;99.90;;;;;;4988636;28;20041;-78
2023/06/22 08:22:55;;;;;;;3.97;2.75;;;26.70;99.90;;;;;;4986110;28;20036;-79
2023/06/22 08:25:21;;;;;;;5.18;2.88;;;26.70;99.90;;;;;;4987060;28;20088;-82
2023/06/22 08:27:48;;;;;;;6.35;2.80;;;26.80;99.90;;;;;;4991426;28;20188;-79
2023/06/22 08:30:14;;;;;;;8.95;3.08;;;26.80;99.90;;;;;;4991755;28;20026;-81
2023/06/22 08:32:40;;;;;;;6.35;3.08;;;26.80;99.90;;;;;;4988500;28;20026;-80
2023/06/22 08:35:08;;;;;;;5.60;2.95;;;26.90;99.90;;;;;;4998670;28;20041;-80
2023/06/22 08:37:35;;;;;;;4.53;2.47;;;26.90;99.90;;;;;;4996003;28;20030;-80
2023/06/22 08:40:08;;;;;;;4.53;2.75;;;26.90;99.90;;;;;;4996400;28;20065;-60
2023/06/22 08:42:33;;;;;;;4.55;2.70;;;26.90;99.90;;;;;;4996458;28;20036;-79
2023/06/22 08:44:59;;;;;;;6.07;3.45;;;26.90;99.90;;;;;;4999368;28;20037;-78
2023/06/22 08:47:25;;;;;;;7.85;3.17;;;27.00;99.90;;;;;;4996455;28;20088;-79
2023/06/22 08:49:50;;;;;;;6.80;3.03;;;27.00;99.90;;;;;;4998133;28;20783;-79
2023/06/22 08:52:17;;;;;;;4.68;3.00;;;27.00;99.90;;;;;;4990270;28;20033;-80
2023/06/22 08:54:43;;;;;;;4.63;2.80;;;27.10;99.90;;;;;;4992993;28;20017;-80
2023/06/22 08:57:09;;;;;;;5.07;2.70;;;27.10;99.90;;;;;;4998420;28;20034;-79
2023/06/22 08:59:34;;;;;;;8.20;3.28;;;27.20;99.90;;;;;;4991003;28;20601;-80
2023/06/22 09:02:00;;;;;;;7.07;3.45;;;27.20;99.90;;;;;;4995626;28;20041;-79
2023/06/22 09:04:25;;;;;;;5.15;2.80;;;27.20;99.90;;;;;;5001100;28;20032;-80
2023/06/22 09:06:52;;;;;;;3.17;2.88;;;27.30;99.90;;;;;;4994057;28;20466;-81
2023/06/22 09:09:18;;;;;;;4.38;2.78;;;27.30;99.90;;;;;;4999093;28;20029;-82
2023/06/22 09:11:44;;;;;;;5.47;2.95;;;27.40;99.90;;;;;;4999570;28;20725;-78
2023/06/22 09:14:10;;;;;;;7.45;2.60;;;27.40;99.90;;;;;;4988174;28;20076;-81
2023/06/22 09:16:36;;;;;;;4.68;2.85;;;27.40;99.90;;;;;;4992918;28;20041;-79
2023/06/22 09:19:01;;;;;;;7.10;2.83;;;27.50;99.90;;;;;;4986795;28;20045;-80
2023/06/22 09:21:27;;;;;;;6.43;3.25;;;27.50;99.90;;;;;;4995071;28;20042;-59
2023/06/22 09:23:53;;;;;;;5.57;2.72;;;27.50;99.90;;;;;;4999314;28;20527;-61
2023/06/22 09:26:19;;;;;;;7.03;3.10;;;27.50;99.90;;;;;;5002261;28;20136;-60
2023/06/22 09:28:45;;;;;;;4.57;2.75;;;27.50;99.90;;;;;;4988288;28;20033;-60
2023/06/22 09:31:11;;;;;;;3.25;2.53;;;27.50;99.90;;;;;;4993957;28;20601;-60
2023/06/22 09:33:40;;;;;;;5.25;2.80;;;27.50;99.90;;;;;;4988498;28;20073;-59
2023/06/22 09:36:07;;;;;;;4.28;2.30;;;27.50;99.90;;;;;;4991413;28;20038;-60
2023/06/22 09:38:38;;;;;;;6.82;3.22;;;27.60;99.90;;;;;;4996712;28;20562;-60
2023/06/22 09:41:04;;;;;;;6.35;2.33;;;27.60;99.90;;;;;;5001743;28;20026;-60
2023/06/22 09:43:32;;;;;;;7.28;2.90;;;27.70;99.90;;;;;;4998033;28;20026;-60
2023/06/22 09:45:58;;;;;;;6.18;2.85;;;27.70;99.90;;;;;;4991458;28;20038;-60
2023/06/22 09:48:23;;;;;;;6.88;3.08;;;27.80;99.90;;;;;;4998965;28;20045;-59
2023/06/22 09:50:49;;;;;;;3.50;2.40;;;27.90;99.90;;;;;;4991282;28;20064;-59
2023/06/22 09:53:15;;;;;;;7.13;2.58;;;27.90;99.90;;;;;;4985092;28;20541;-60
2023/06/22 09:55:40;;;;;;;5.55;2.58;;;28.00;99.90;;;;;;4995681;28;20041;-60
2023/06/22 09:58:06;;;;;;;5.35;2.60;;;28.00;99.90;;;;;;4989500;28;20069;-60
2023/06/22 10:00:32;;;;;;;4.10;2.35;;;28.00;99.90;;;;;;4993781;28;20026;-59
2023/06/22 10:02:57;;;;;;;6.97;2.63;;;28.00;99.90;;;;;;4987959;28;20475;-60
2023/06/22 10:05:24;;;;;;;4.07;2.73;;;28.10;99.90;;;;;;4996964;28;20030;-65
2023/06/22 10:07:50;;;;;;;3.38;2.78;;;28.10;99.90;;;;;;4991222;28;20053;-64
2023/06/22 10:10:16;;;;;;;3.65;2.20;;;28.20;99.90;;;;;;4993673;28;20034;-64
2023/06/22 10:12:47;;;;;;;4.70;2.67;;;28.40;99.90;;;;;;4992728;28;20118;-64
2023/06/22 10:15:14;;;;;;;4.68;2.42;;;28.60;99.90;;;;;;4992744;28;20037;-65
2023/06/22 10:17:40;;;;;;;5.43;2.65;;;28.60;99.90;;;;;;4985970;28;20030;-64
2023/06/22 10:20:13;;;;;;;4.90;2.67;;;28.70;99.90;;;;;;4990224;28;20053;-64
2023/06/22 10:22:43;;;;;;;4.75;3.17;;;28.70;99.90;;;;;;4985425;28;20132;-65
2023/06/22 10:25:12;;;;;;;4.38;2.38;;;28.80;99.90;;;;;;4994363;28;20034;-64
2023/06/22 10:27:39;;;;;;;6.50;3.33;;;28.80;99.90;;;;;;4992012;28;20038;-65
2023/06/22 10:30:09;;;;;;;5.32;3.00;;;28.90;99.90;;;;;;4994534;28;20034;-65
2023/06/22 10:32:37;;;;;;;7.28;2.60;;;29.00;99.90;;;;;;4992249;28;20098;-66
2023/06/22 10:35:03;;;;;;;6.70;3.10;;;29.10;99.90;;;;;;4992833;28;20034;-65
2023/06/22 10:37:29;;;;;;;4.85;2.63;;;29.20;99.90;;;;;;4997429;28;20038;-64
2023/06/22 10:39:54;;;;;;;4.28;2.78;;;29.20;99.90;;;;;;4991133;28;20045;-64
2023/06/22 10:42:20;;;;;;;5.10;2.70;;;29.30;99.90;;;;;;4991074;28;20048;-64
2023/06/22 10:44:46;;;;;;;5.53;3.20;;;29.40;99.90;;;;;;4996572;28;20233;-65
2023/06/22 10:47:12;;;;;;;4.75;2.78;;;29.40;99.90;;;;;;4989205;28;20054;-65
2023/06/22 10:49:39;;;;;;;6.93;3.15;;;29.50;99.90;;;;;;4991868;28;20100;-65
2023/06/22 10:52:06;;;;;;;3.85;2.80;;;29.50;99.90;;;;;;4986190;28;20026;-72
2023/06/22 10:54:33;;;;;;;5.10;2.30;;;29.40;99.90;;;;;;4999367;28;20034;-72
2023/06/22 10:56:59;;;;;;;5.03;2.83;;;29.40;99.90;;;;;;4996908;28;20026;-71
2023/06/22 10:59:25;;;;;;;4.72;2.67;;;29.40;99.90;;;;;;4998204;28;20037;-71
2023/06/22 11:01:51;;;;;;;5.70;3.13;;;29.60;99.90;;;;;;4995917;28;20030;-72
2023/06/22 11:04:17;;;;;;;6.38;2.95;;;29.70;99.90;;;;;;4996587;28;20536;-72
2023/06/22 11:06:43;;;;;;;5.68;2.95;;;29.80;99.90;;;;;;4992414;28;20111;-72
2023/06/22 11:09:09;;;;;;;5.43;2.95;;;29.80;99.90;;;;;;4993104;28;20025;-72
2023/06/22 11:11:34;;;;;;;3.00;2.67;;;29.70;99.90;;;;;;4986491;28;20500;-72
2023/06/22 11:14:00;;;;;;;3.28;2.97;;;29.80;99.90;;;;;;4991705;28;20041;-73
2023/06/22 11:16:26;;;;;;;5.63;2.65;;;29.80;99.90;;;;;;4982556;28;20042;-72
2023/06/22 11:18:51;;;;;;;5.65;2.83;;;29.80;99.90;;;;;;4984538;28;20038;-72
2023/06/22 11:21:17;;;;;;;7.70;2.78;;;29.80;99.90;;;;;;4991320;28;20030;-73
2023/06/22 11:23:43;;;;;;;6.13;2.90;;;29.90;99.90;;;;;;4991525;28;20636;-73
2023/06/22 11:26:08;;;;;;;4.30;2.75;;;29.90;99.90;;;;;;4994835;28;20090;-65
2023/06/22 11:28:34;;;;;;;6.28;2.92;;;29.90;99.90;;;;;;4992418;28;20313;-65
2023/06/22 11:31:00;;;;;;;3.90;2.63;;;29.90;99.90;;;;;;4990285;28;20096;-65
2023/06/22 11:33:25;;;;;;;5.15;3.50;;;29.90;99.90;;;;;;4994926;28;20045;-65
2023/06/22 11:35:51;;;;;;;5.70;3.65;;;29.90;99.90;;;;;;4982296;28;20092;-65
2023/06/22 11:38:17;;;;;;;6.25;3.10;;;29.80;99.90;;;;;;4989439;28;20109;-65
2023/06/22 11:40:42;;;;;;;3.15;2.53;;;30.00;99.90;;;;;;4992900;28;20093;-66
2023/06/22 11:43:08;;;;;;;5.85;3.05;;;30.10;99.90;;;;;;4999042;28;20029;-65
2023/06/22 11:45:33;;;;;;;6.95;3.30;;;30.10;99.90;;;;;;4999311;28;20104;-73
2023/06/22 11:47:59;;;;;;;4.85;2.72;;;30.10;99.90;;;;;;5000023;28;20041;-72
2023/06/22 11:50:25;;;;;;;7.15;2.97;;;30.10;99.90;;;;;;5018296;28;20471;-72
2023/06/22 11:52:52;;;;;;;7.97;2.97;;;30.10;99.90;;;;;;4994911;28;20057;-72
2023/06/22 11:55:18;;;;;;;3.80;2.83;;;30.10;99.90;;;;;;4993195;28;20101;-73
2023/06/22 11:57:55;;;;;;;5.22;3.17;;;30.10;99.90;;;;;;4990995;28;20121;-73
2023/06/22 12:00:23;;;;;;;3.65;2.75;;;30.20;99.90;;;;;;4989773;28;20033;-73
2023/06/22 12:02:52;;;;;;;3.63;2.60;;;30.20;99.90;;;;;;4996487;28;20034;-73
2023/06/22 12:05:20;;;;;;;5.95;2.78;;;30.20;99.90;;;;;;4994223;28;21083;-73
2023/06/22 12:07:46;;;;;;;4.50;2.50;;;30.20;99.90;;;;;;4990139;28;20096;-72
2023/06/22 12:10:12;;;;;;;4.53;3.35;;;30.30;99.90;;;;;;4997612;28;20117;-73
2023/06/22 12:12:38;;;;;;;6.18;3.00;;;30.30;99.90;;;;;;4994033;28;20107;-73
2023/06/22 12:15:04;;;;;;;4.05;2.90;;;30.10;99.90;;;;;;4993712;28;20534;-72
2023/06/22 12:17:30;;;;;;;6.18;3.08;;;30.20;99.90;;;;;;4998757;28;20108;-73
2023/06/22 12:19:55;;;;;;;6.70;3.15;;;30.20;99.90;;;;;;5005851;28;20628;-71
2023/06/22 12:22:21;;;;;;;4.20;2.80;;;30.20;99.90;;;;;;4996377;28;20067;-73
2023/06/22 12:24:47;;;;;;;5.85;2.97;;;30.20;99.90;;;;;;4999363;28;20398;-73
2023/06/22 12:27:16;;;;;;;4.22;2.80;;;30.10;99.90;;;;;;4997113;28;20707;-73
2023/06/22 12:29:41;;;;;;;6.15;3.00;;;30.00;99.90;;;;;;4999710;28;20030;-72
2023/06/22 12:32:07;;;;;;;6.63;3.55;;;29.70;99.90;;;;;;4993246;28;20041;-73
2023/06/22 12:34:33;;;;;;;5.97;3.00;;;29.40;99.90;;;;;;4996906;28;20300;-74
2023/06/22 12:36:58;;;;;;;7.57;3.67;;;29.40;99.90;;;;;;5004536;28;20421;-74
2023/06/22 12:39:24;;;;;;;3.78;3.05;;;29.30;99.90;;;;;;4997144;28;20034;-73
2023/06/22 12:41:50;;;;;;;5.88;3.20;;;29.40;99.90;;;;;;5002707;28;20025;-64
2023/06/22 12:44:15;;;;;;;5.18;3.33;;;29.50;99.90;;;;;;4997062;28;20262;-65